createdAt,value
2018-03-20T00:01:08.166Z,22.30
2018-03-20T00:03:38.279Z,22.80
2018-03-20T00:06:07.751Z,21.60
2018-03-20T00:08:37.264Z,21.40
2018-03-20T00:11:06.863Z,22.10
2018-03-20T00:13:36.645Z,18.70
2018-03-20T00:16:09.862Z,19.00
2018-03-20T00:18:39.288Z,18.90
2018-03-20T00:21:09.130Z,18.30
2018-03-20T00:23:38.599Z,19.10
2018-03-20T00:26:08.289Z,19.20
2018-03-20T00:28:37.604Z,18.50
2018-03-20T00:31:06.860Z,16.90
2018-03-20T00:33:37.038Z,18.10
2018-03-20T00:36:07.545Z,18.10
2018-03-20T00:38:36.809Z,18.40
2018-03-20T00:41:05.949Z,17.70
2018-03-20T00:43:35.053Z,18.30
2018-03-20T00:46:04.325Z,18.70
2018-03-20T00:48:34.574Z,17.40
2018-03-20T00:51:04.840Z,19.20
2018-03-20T00:53:35.229Z,19.90
2018-03-20T00:56:05.046Z,19.90
2018-03-20T00:58:34.763Z,18.80
2018-03-20T01:01:08.103Z,20.30
2018-03-20T01:03:38.086Z,19.10
2018-03-20T01:06:08.347Z,19.70
2018-03-20T01:08:37.897Z,19.80
2018-03-20T01:11:07.745Z,19.00
2018-03-20T01:13:37.112Z,18.20
2018-03-20T01:16:07.180Z,19.10
2018-03-20T01:18:36.592Z,19.20
2018-03-20T01:21:05.987Z,19.60
2018-03-20T01:23:36.197Z,20.20
2018-03-20T01:26:05.473Z,20.20
2018-03-20T01:28:35.304Z,19.70
2018-03-20T01:31:05.070Z,19.70
2018-03-20T01:33:34.536Z,19.70
2018-03-20T01:36:04.564Z,21.40
2018-03-20T01:38:33.944Z,20.20
2018-03-20T01:41:03.140Z,20.30
2018-03-20T01:43:32.729Z,20.50
2018-03-20T01:46:02.065Z,21.40
2018-03-20T01:48:31.141Z,20.50
2018-03-20T01:51:01.257Z,21.20
2018-03-20T01:53:30.568Z,21.80
2018-03-20T01:56:00.077Z,22.30
2018-03-20T01:58:29.610Z,22.30
2018-03-20T02:00:59.800Z,22.50
2018-03-20T02:03:31.139Z,22.70
2018-03-20T02:06:01.152Z,23.70
2018-03-20T02:08:30.718Z,24.50
2018-03-20T02:11:00.618Z,26.40
2018-03-20T02:13:31.570Z,27.10
2018-03-20T02:16:01.900Z,26.20
2018-03-20T02:18:35.672Z,28.40
2018-03-20T02:21:05.593Z,28.40
2018-03-20T02:23:35.298Z,28.80
2018-03-20T02:26:04.623Z,31.00
2018-03-20T02:28:34.197Z,31.60
2018-03-20T02:31:03.708Z,32.70
2018-03-20T02:33:33.386Z,32.50
2018-03-20T02:36:03.123Z,32.50
2018-03-20T02:38:32.366Z,34.50
2018-03-20T02:41:01.744Z,32.30
2018-03-20T02:43:32.277Z,33.80
2018-03-20T02:46:01.709Z,34.00
2018-03-20T02:48:31.478Z,34.50
2018-03-20T02:51:01.554Z,34.10
2018-03-20T02:53:30.898Z,33.70
2018-03-20T02:56:00.134Z,36.80
2018-03-20T02:58:29.593Z,37.60
2018-03-20T03:00:58.984Z,38.20
2018-03-20T03:03:29.317Z,37.00
2018-03-20T03:05:58.751Z,36.90
2018-03-20T03:08:27.617Z,38.60
2018-03-20T03:10:56.957Z,38.50
2018-03-20T03:13:28.071Z,39.70
2018-03-20T03:15:58.258Z,39.80
2018-03-20T03:18:27.876Z,39.80
2018-03-20T03:20:58.705Z,42.00
2018-03-20T03:23:28.068Z,42.10
2018-03-20T03:25:57.144Z,40.00
2018-03-20T03:28:26.037Z,41.50
2018-03-20T03:30:54.881Z,39.90
2018-03-20T03:33:24.294Z,40.20
2018-03-20T03:35:53.789Z,42.00
2018-03-20T03:38:23.451Z,41.50
2018-03-20T03:40:52.730Z,42.10
2018-03-20T03:43:28.799Z,39.30
2018-03-20T03:45:57.707Z,44.00
2018-03-20T03:48:27.135Z,43.70
2018-03-20T03:50:56.997Z,45.40
2018-03-20T03:53:26.598Z,45.60
2018-03-20T03:55:55.945Z,44.40
2018-03-20T03:58:25.500Z,42.10
2018-03-20T04:00:55.743Z,45.70
2018-03-20T04:03:24.676Z,45.70
2018-03-20T04:05:54.110Z,42.40
2018-03-20T04:08:23.403Z,45.80
2018-03-20T04:10:52.678Z,45.90
2018-03-20T04:13:21.671Z,46.80
2018-03-20T04:15:50.492Z,48.40
2018-03-20T04:18:20.422Z,47.80
2018-03-20T04:20:49.682Z,47.70
2018-03-20T04:23:18.790Z,48.40
2018-03-20T04:25:49.081Z,49.30
2018-03-20T04:28:18.591Z,49.20
2018-03-20T04:30:48.308Z,49.80
2018-03-20T04:33:17.632Z,49.90
2018-03-20T04:35:46.553Z,50.20
2018-03-20T04:38:15.758Z,50.20
2018-03-20T04:40:45.509Z,50.90
2018-03-20T04:43:16.511Z,51.30
2018-03-20T04:45:45.754Z,51.20
2018-03-20T04:48:15.160Z,52.10
2018-03-20T04:50:44.672Z,51.20
2018-03-20T04:53:13.774Z,52.40
2018-03-20T04:55:43.299Z,52.70
2018-03-20T04:58:12.555Z,52.70
2018-03-20T05:00:42.058Z,53.30
2018-03-20T05:03:11.540Z,53.30
2018-03-20T05:05:41.105Z,53.50
2018-03-20T05:08:10.789Z,53.50
2018-03-20T05:10:40.293Z,53.60
2018-03-20T05:13:10.015Z,54.10
2018-03-20T05:15:39.538Z,53.90
2018-03-20T05:18:08.939Z,54.60
2018-03-20T05:23:49.726Z,55.70
2018-03-20T05:26:19.454Z,55.90
2018-03-20T05:28:48.772Z,55.60
2018-03-20T05:31:18.253Z,56.50
2018-03-20T05:33:47.772Z,57.60
2018-03-20T05:36:17.115Z,56.90
2018-03-20T05:38:46.844Z,57.50
2018-03-20T05:41:16.292Z,58.00
2018-03-20T05:43:46.952Z,58.50
2018-03-20T05:46:16.305Z,58.90
2018-03-20T05:48:52.542Z,59.10
2018-03-20T05:51:27.063Z,59.10
2018-03-20T05:53:56.266Z,59.30
2018-03-20T05:56:25.696Z,60.10
2018-03-20T05:58:55.335Z,60.20
2018-03-20T06:01:24.916Z,60.30
2018-03-20T06:03:54.267Z,60.60
2018-03-20T06:06:23.416Z,60.90
2018-03-20T06:08:52.688Z,61.00
2018-03-20T06:11:21.890Z,60.60
2018-03-20T06:13:51.418Z,59.80
2018-03-20T06:16:20.951Z,60.60
2018-03-20T06:18:51.274Z,60.40
2018-03-20T06:21:21.387Z,60.30
2018-03-20T06:23:50.484Z,60.50
2018-03-20T06:26:19.782Z,60.50
2018-03-20T06:28:49.241Z,60.80
2018-03-20T06:31:18.777Z,60.80
2018-03-20T06:33:48.498Z,60.30
2018-03-20T06:36:17.772Z,60.30
2018-03-20T06:38:47.287Z,60.10
2018-03-20T06:41:16.776Z,60.00
2018-03-20T06:43:46.121Z,60.70
2018-03-20T06:46:16.701Z,61.30
2018-03-20T06:48:46.252Z,61.40
2018-03-20T06:51:15.697Z,62.20
2018-03-20T06:53:44.862Z,62.40
2018-03-20T06:56:14.165Z,62.60
2018-03-20T06:58:43.843Z,63.10
2018-03-20T07:01:12.914Z,64.10
2018-03-20T07:03:42.628Z,65.50
2018-03-20T07:06:11.954Z,65.30
2018-03-20T07:08:41.223Z,64.80
2018-03-20T07:11:10.574Z,64.70
2018-03-20T07:13:39.638Z,65.20
2018-03-20T07:16:08.954Z,66.10
2018-03-20T07:18:38.235Z,65.80
2018-03-20T07:21:07.583Z,66.00
2018-03-20T07:23:36.844Z,66.40
2018-03-20T07:26:06.948Z,66.60
2018-03-20T07:28:36.487Z,66.80
2018-03-20T07:31:05.969Z,67.00
2018-03-20T07:33:37.231Z,67.50
2018-03-20T07:36:06.499Z,67.00
2018-03-20T07:38:35.840Z,66.90
2018-03-20T07:41:05.086Z,67.20
2018-03-20T07:43:34.374Z,66.80
2018-03-20T07:46:03.748Z,67.70
2018-03-20T07:48:32.827Z,68.40
2018-03-20T07:51:02.108Z,68.70
2018-03-20T07:53:32.015Z,69.60
2018-03-20T07:56:01.539Z,70.00
2018-03-20T07:58:31.257Z,69.00
2018-03-20T08:01:00.544Z,70.40
2018-03-20T08:03:30.279Z,69.60
2018-03-20T08:05:59.884Z,70.60
2018-03-20T08:08:29.677Z,70.30
2018-03-20T08:10:59.723Z,69.90
2018-03-20T08:13:29.085Z,71.70
2018-03-20T08:15:58.598Z,71.10
2018-03-20T08:18:28.070Z,72.10
2018-03-20T08:20:57.531Z,73.50
2018-03-20T08:23:26.899Z,73.80
2018-03-20T08:25:56.183Z,73.90
2018-03-20T08:28:25.515Z,73.80
2018-03-20T08:30:54.603Z,73.80
2018-03-20T08:33:23.839Z,73.70
2018-03-20T08:35:53.206Z,73.70
2018-03-20T08:38:22.441Z,75.20
2018-03-20T08:40:51.736Z,76.70
2018-03-20T08:43:20.927Z,75.70
2018-03-20T08:45:50.879Z,76.80
2018-03-20T08:48:20.159Z,76.90
2018-03-20T08:50:49.476Z,77.40
2018-03-20T08:53:19.578Z,77.30
2018-03-20T08:55:49.272Z,77.40
2018-03-20T08:58:18.374Z,79.30
2018-03-20T09:00:47.701Z,79.00
2018-03-20T09:03:16.796Z,78.80
2018-03-20T09:05:46.738Z,78.90
2018-03-20T09:08:15.990Z,79.90
2018-03-20T09:10:45.489Z,80.30
2018-03-20T09:13:14.603Z,80.10
2018-03-20T09:15:44.060Z,79.40
2018-03-20T09:18:13.417Z,79.20
2018-03-20T09:20:42.683Z,78.90
2018-03-20T09:23:12.016Z,78.20
2018-03-20T09:25:41.106Z,77.80
2018-03-20T09:28:10.285Z,78.00
2018-03-20T09:30:40.009Z,78.30
2018-03-20T09:33:09.321Z,78.30
2018-03-20T09:35:38.180Z,78.20
2018-03-20T09:38:07.520Z,79.00
2018-03-20T09:40:36.821Z,80.20
2018-03-20T09:43:06.298Z,81.10
2018-03-20T09:45:36.056Z,82.80
2018-03-20T09:48:06.352Z,83.00
2018-03-20T09:50:35.465Z,83.00
2018-03-20T09:53:04.753Z,82.50
2018-03-20T09:55:34.316Z,81.70
2018-03-20T09:58:03.770Z,82.60
2018-03-20T10:00:33.081Z,85.40
2018-03-20T10:03:02.567Z,85.40
2018-03-20T10:05:31.876Z,86.00
2018-03-20T10:08:01.054Z,85.00
2018-03-20T10:10:30.785Z,84.90
2018-03-20T10:13:00.083Z,84.90
2018-03-20T10:15:29.619Z,84.00
2018-03-20T10:17:59.039Z,85.40
2018-03-20T10:20:29.343Z,86.20
2018-03-20T10:22:58.775Z,86.20
2018-03-20T10:25:28.927Z,85.80
2018-03-20T10:27:58.598Z,85.70
2018-03-20T10:30:28.795Z,86.80
2018-03-20T10:32:58.079Z,86.60
2018-03-20T10:35:27.614Z,86.30
2018-03-20T10:37:57.694Z,86.50
2018-03-20T10:40:27.401Z,86.60
2018-03-20T10:42:57.112Z,85.90
2018-03-20T10:45:27.247Z,85.50
2018-03-20T10:47:56.556Z,85.50
2018-03-20T10:50:25.999Z,85.90
2018-03-20T10:52:57.244Z,86.20
2018-03-20T10:55:26.969Z,86.10
2018-03-20T10:57:56.281Z,86.10
2018-03-20T11:00:30.935Z,86.50
2018-03-20T11:03:00.576Z,86.90
2018-03-20T11:05:30.096Z,86.90
2018-03-20T11:07:59.387Z,86.30
2018-03-20T11:10:30.009Z,85.70
2018-03-20T11:13:00.053Z,85.90
2018-03-20T11:15:29.391Z,85.70
2018-03-20T11:17:59.540Z,86.80
2018-03-20T11:20:30.024Z,88.20
2018-03-20T11:22:59.338Z,88.30
2018-03-20T11:25:29.461Z,89.40
2018-03-20T11:27:58.823Z,89.50
2018-03-20T11:30:28.339Z,90.00
2018-03-20T11:32:57.606Z,90.00
2018-03-20T11:35:27.162Z,90.20
2018-03-20T11:37:56.798Z,90.10
2018-03-20T11:40:27.018Z,89.80
2018-03-20T11:42:57.388Z,89.60
2018-03-20T11:45:26.906Z,89.40
2018-03-20T11:47:56.111Z,89.00
2018-03-20T11:50:25.551Z,89.50
2018-03-20T11:52:55.078Z,89.30
2018-03-20T11:55:24.409Z,88.90
2018-03-20T11:57:53.516Z,89.30
2018-03-20T12:00:22.630Z,89.40
2018-03-20T12:02:52.095Z,89.00
2018-03-20T12:05:21.776Z,89.20
2018-03-20T12:07:56.798Z,90.00
2018-03-20T12:10:26.090Z,90.20
2018-03-20T12:12:57.248Z,90.00
2018-03-20T12:15:27.014Z,90.00
2018-03-20T12:17:58.227Z,90.30
2018-03-20T12:20:27.766Z,90.30
2018-03-20T12:22:57.441Z,90.60
2018-03-20T12:25:27.154Z,90.60
2018-03-20T12:27:56.588Z,90.60
2018-03-20T12:30:26.999Z,90.30
2018-03-20T12:32:56.236Z,90.70
2018-03-20T12:35:25.520Z,90.70
2018-03-20T12:37:55.052Z,90.70
2018-03-20T12:40:24.349Z,90.80
2018-03-20T12:42:53.824Z,90.60
2018-03-20T12:45:23.364Z,90.60
2018-03-20T12:47:52.795Z,90.40
2018-03-20T12:50:22.550Z,90.30
2018-03-20T12:52:53.386Z,90.00
2018-03-20T12:55:23.531Z,90.30
2018-03-20T12:57:53.236Z,90.40
2018-03-20T13:00:22.809Z,90.60
2018-03-20T13:02:52.446Z,90.70
2018-03-20T13:05:21.958Z,90.90
2018-03-20T13:07:51.344Z,90.90
2018-03-20T13:10:21.576Z,90.90
2018-03-20T13:12:50.862Z,91.40
2018-03-20T13:15:21.682Z,91.40
2018-03-20T13:17:51.795Z,91.30
2018-03-20T13:20:21.659Z,91.30
2018-03-20T13:22:51.023Z,91.50
2018-03-20T13:25:21.336Z,91.30
2018-03-20T13:27:52.119Z,91.50
2018-03-20T13:30:21.916Z,91.40
2018-03-20T13:32:51.432Z,91.60
2018-03-20T13:35:20.957Z,91.50
2018-03-20T13:37:51.048Z,91.40
2018-03-20T13:40:20.871Z,91.80
2018-03-20T13:42:50.280Z,91.70
2018-03-20T13:45:19.795Z,92.10
2018-03-20T13:47:49.039Z,92.10
2018-03-20T13:50:18.676Z,92.10
2018-03-20T13:52:49.379Z,92.10
2018-03-20T13:55:18.300Z,92.10
2018-03-20T13:57:47.680Z,92.00
2018-03-20T14:00:17.082Z,91.90
2018-03-20T14:02:46.545Z,92.10
2018-03-20T14:05:16.037Z,92.10
2018-03-20T14:07:45.544Z,92.10
2018-03-20T14:10:14.876Z,92.20
2018-03-20T14:12:44.799Z,92.50
2018-03-20T14:15:15.136Z,92.40
2018-03-20T14:17:45.419Z,92.60
2018-03-20T14:20:15.695Z,92.40
2018-03-20T14:22:45.196Z,92.40
2018-03-20T14:25:14.335Z,92.10
2018-03-20T14:27:43.837Z,92.60
2018-03-20T14:30:13.494Z,92.70
2018-03-20T14:32:42.709Z,92.60
2018-03-20T14:35:12.360Z,92.60
2018-03-20T14:37:42.288Z,92.70
2018-03-20T14:40:12.724Z,93.00
2018-03-20T14:42:42.313Z,93.00
2018-03-20T14:45:12.221Z,93.00
2018-03-20T14:47:41.660Z,93.00
2018-03-20T14:50:11.532Z,93.10
2018-03-20T14:52:41.041Z,93.30
2018-03-20T14:55:10.465Z,93.40
2018-03-20T14:57:40.713Z,93.50
2018-03-20T15:00:10.638Z,93.50
2018-03-20T15:02:40.106Z,93.60
2018-03-20T15:05:09.743Z,93.80
2018-03-20T15:07:39.444Z,94.30
2018-03-20T15:10:08.737Z,94.80
2018-03-20T15:12:38.035Z,95.00
2018-03-20T15:15:07.370Z,95.10
2018-03-20T15:17:36.824Z,95.30
2018-03-20T15:20:06.155Z,95.50
2018-03-20T15:22:35.410Z,95.70
2018-03-20T15:25:05.152Z,95.90
2018-03-20T15:27:34.438Z,96.00
2018-03-20T15:30:03.797Z,96.00
2018-03-20T15:32:33.289Z,95.30
2018-03-20T15:35:02.720Z,95.00
2018-03-20T15:37:32.585Z,94.90
2018-03-20T15:40:02.832Z,94.80
2018-03-20T15:42:33.414Z,92.40
2018-03-20T15:45:03.254Z,93.00
2018-03-20T15:47:32.583Z,82.70
2018-03-20T15:50:02.625Z,81.60
2018-03-20T15:52:31.920Z,81.30
2018-03-20T15:55:01.419Z,76.70
2018-03-20T15:57:30.567Z,66.60
2018-03-20T15:59:59.854Z,70.00
2018-03-20T16:02:29.404Z,64.30
2018-03-20T16:04:58.848Z,58.80
2018-03-20T16:07:28.416Z,56.40
2018-03-20T16:09:58.484Z,49.20
2018-03-20T16:12:29.007Z,47.80
2018-03-20T16:14:58.703Z,47.60
2018-03-20T16:17:28.007Z,45.20
2018-03-20T16:19:57.327Z,39.60
2018-03-20T16:22:27.824Z,36.60
2018-03-20T16:24:57.152Z,36.70
2018-03-20T16:27:26.469Z,30.70
2018-03-20T16:29:55.921Z,26.70
2018-03-20T16:32:25.257Z,24.90
2018-03-20T16:34:54.526Z,22.40
2018-03-20T16:37:23.826Z,19.50
2018-03-20T16:39:53.115Z,20.80
2018-03-20T16:42:22.321Z,22.90
2018-03-20T16:44:51.839Z,23.80
2018-03-20T16:47:21.356Z,22.70
2018-03-20T16:49:50.595Z,23.90
2018-03-20T16:52:19.723Z,19.30
2018-03-20T16:54:49.824Z,20.90
2018-03-20T16:57:19.338Z,20.60
2018-03-20T16:59:48.429Z,16.50
2018-03-20T17:02:17.757Z,21.30
2018-03-20T17:04:48.273Z,17.50
2018-03-20T17:07:17.787Z,22.00
2018-03-20T17:09:46.890Z,18.10
2018-03-20T17:12:16.014Z,16.40
2018-03-20T17:14:45.284Z,19.90
2018-03-20T17:17:14.633Z,15.90
2018-03-20T17:19:44.689Z,18.20
2018-03-20T17:22:14.160Z,18.10
2018-03-20T17:24:43.688Z,17.20
2018-03-20T17:27:13.288Z,16.70
2018-03-20T17:29:42.612Z,15.20
2018-03-20T17:32:12.091Z,14.70
2018-03-20T17:34:41.249Z,13.90
2018-03-20T17:37:10.675Z,12.70
2018-03-20T17:39:40.208Z,15.50
2018-03-20T17:42:09.562Z,15.60
2018-03-20T17:44:38.831Z,11.60
2018-03-20T17:47:08.155Z,14.40
2018-03-20T17:49:37.849Z,13.50
2018-03-20T17:52:08.924Z,16.00
2018-03-20T17:54:39.387Z,15.20
2018-03-20T17:57:09.481Z,14.60
2018-03-20T17:59:38.927Z,14.50
2018-03-20T18:02:09.202Z,14.20
2018-03-20T18:04:38.347Z,14.20
2018-03-20T18:07:07.641Z,12.80
2018-03-20T18:09:36.921Z,13.80
2018-03-20T18:12:06.007Z,12.00
2018-03-20T18:14:35.121Z,11.70
2018-03-20T18:17:04.482Z,12.20
2018-03-20T18:19:34.087Z,11.80
2018-03-20T18:22:03.443Z,12.40
2018-03-20T18:24:32.941Z,15.30
2018-03-20T18:27:02.288Z,15.90
2018-03-20T18:29:31.603Z,13.70
2018-03-20T18:32:00.890Z,14.40
2018-03-20T18:34:30.929Z,13.90
2018-03-20T18:37:00.700Z,13.90
2018-03-20T18:39:30.966Z,13.70
2018-03-20T18:42:01.017Z,13.70
2018-03-20T18:44:30.983Z,15.70
2018-03-20T18:47:00.415Z,15.70
2018-03-20T18:49:29.532Z,14.00
2018-03-20T18:51:59.778Z,14.20
2018-03-20T18:54:29.102Z,15.70
2018-03-20T18:56:59.455Z,13.70
2018-03-20T18:59:28.966Z,15.80
2018-03-20T19:01:58.627Z,13.80
2018-03-20T19:04:29.434Z,13.10
2018-03-20T19:06:59.112Z,13.10
2018-03-20T19:09:28.999Z,15.70
2018-03-20T19:11:59.639Z,13.70
2018-03-20T19:14:28.949Z,12.70
2018-03-20T19:16:58.676Z,14.90
2018-03-20T19:19:28.324Z,13.00
2018-03-20T19:21:57.864Z,12.90
2018-03-20T19:24:27.175Z,10.60
2018-03-20T19:26:56.763Z,12.00
2018-03-20T19:29:26.779Z,12.00
2018-03-20T19:31:56.127Z,8.70
2018-03-20T19:34:25.389Z,12.00
2018-03-20T19:36:54.891Z,14.50
2018-03-20T19:39:25.385Z,14.20
2018-03-20T19:41:56.143Z,12.00
2018-03-20T19:44:25.528Z,11.40
2018-03-20T19:46:55.754Z,9.70
2018-03-20T19:49:25.370Z,9.50
2018-03-20T19:51:54.505Z,9.70
2018-03-20T19:54:24.543Z,8.50
2018-03-20T19:56:54.371Z,13.30
2018-03-20T19:59:24.420Z,12.90
2018-03-20T20:01:53.932Z,12.90
2018-03-20T20:04:24.022Z,11.00
2018-03-20T20:06:53.417Z,11.80
2018-03-20T20:09:23.074Z,12.70
2018-03-20T20:11:52.783Z,8.40
2018-03-20T20:14:22.328Z,10.00
2018-03-20T20:16:51.871Z,10.70
2018-03-20T20:19:21.313Z,12.70
2018-03-20T20:21:50.864Z,10.50
2018-03-20T20:24:20.535Z,14.00
2018-03-20T20:26:50.244Z,13.80
2018-03-20T20:29:21.009Z,15.10
2018-03-20T20:31:51.342Z,15.20
2018-03-20T20:34:21.191Z,15.20
2018-03-20T20:36:50.940Z,17.90
2018-03-20T20:39:20.463Z,18.50
2018-03-20T20:41:49.764Z,17.40
2018-03-20T20:44:19.054Z,16.70
2018-03-20T20:46:48.524Z,18.10
2018-03-20T20:49:18.779Z,19.00
2018-03-20T20:51:48.256Z,17.90
2018-03-20T20:54:17.498Z,22.70
2018-03-20T20:56:46.579Z,18.70
2018-03-20T20:59:15.672Z,21.00
2018-03-20T21:01:44.964Z,19.20
2018-03-20T21:04:15.412Z,19.30
2018-03-20T21:06:44.675Z,19.30
2018-03-20T21:09:14.241Z,18.60
2018-03-20T21:11:43.549Z,19.00
2018-03-20T21:14:13.390Z,19.10
2018-03-20T21:16:43.568Z,19.20
2018-03-20T21:19:13.034Z,19.10
2018-03-20T21:21:42.132Z,18.00
2018-03-20T21:24:11.661Z,19.10
2018-03-20T21:26:41.353Z,19.10
2018-03-20T21:29:10.914Z,16.60
2018-03-20T21:31:41.082Z,18.10
2018-03-20T21:34:10.850Z,17.70
2018-03-20T21:36:40.175Z,15.20
2018-03-20T21:39:09.677Z,16.00
2018-03-20T21:41:39.275Z,18.80
2018-03-20T21:44:09.208Z,18.30
2018-03-20T21:46:38.313Z,14.60
2018-03-20T21:49:07.803Z,13.40
2018-03-20T21:51:37.361Z,17.20
2018-03-20T21:54:06.625Z,17.60
2018-03-20T21:56:35.722Z,18.50
2018-03-20T21:59:05.238Z,18.30
2018-03-20T22:01:34.855Z,18.00
2018-03-20T22:04:04.033Z,17.60
2018-03-20T22:06:33.451Z,17.30
2018-03-20T22:09:02.838Z,17.00
2018-03-20T22:11:33.145Z,18.10
2018-03-20T22:14:02.906Z,18.10
2018-03-20T22:16:32.238Z,16.20
2018-03-20T22:19:01.321Z,15.90
2018-03-20T22:21:30.670Z,18.30
2018-03-20T22:23:59.859Z,16.80
2018-03-20T22:26:29.176Z,17.30
2018-03-20T22:28:58.674Z,15.80
2018-03-20T22:31:28.377Z,12.90
2018-03-20T22:33:57.519Z,13.60
2018-03-20T22:36:27.743Z,12.60
2018-03-20T22:38:57.853Z,11.70
2018-03-20T22:41:27.166Z,11.70
2018-03-20T22:43:56.306Z,11.00
2018-03-20T22:46:25.392Z,13.50
2018-03-20T22:48:54.792Z,14.30
2018-03-20T22:51:24.440Z,12.50
2018-03-20T22:53:53.801Z,12.00
2018-03-20T22:56:22.925Z,13.50
2018-03-20T22:58:53.901Z,14.30
2018-03-20T23:01:23.198Z,14.20
2018-03-20T23:03:53.297Z,13.30
2018-03-20T23:06:25.751Z,11.90
2018-03-20T23:08:56.693Z,11.90
2018-03-20T23:11:26.136Z,13.30
2018-03-20T23:13:56.666Z,10.80
2018-03-20T23:16:26.523Z,10.70
2018-03-20T23:18:55.755Z,11.40
2018-03-20T23:21:25.052Z,10.30
2018-03-20T23:23:54.360Z,10.70
2018-03-20T23:26:23.629Z,10.60
2018-03-20T23:28:52.888Z,9.20
2018-03-20T23:31:22.227Z,10.30
2018-03-20T23:33:51.343Z,8.40
2018-03-20T23:36:20.532Z,9.10
2018-03-20T23:38:49.793Z,9.30
2018-03-20T23:41:19.115Z,6.80
2018-03-20T23:43:51.247Z,6.70
2018-03-20T23:46:19.999Z,4.00
2018-03-20T23:48:49.672Z,4.80
2018-03-20T23:51:19.386Z,4.70
2018-03-20T23:53:49.014Z,4.60
2018-03-20T23:56:19.459Z,6.90
2018-03-20T23:58:48.734Z,6.90
